Weather History for Kerrville, TX

Change the Weather History Date:

Wednesday, May 8, 2013

  Actual Average (KHDO) Record (KHDO)
Temperature  
Mean Temperature 70 °F -  
Max Temperature 79 °F 84 °F 100 °F (2011)
Min Temperature 62 °F 63 °F 53 °F (2008)
Cooling Degree Days 6    
Growing Degree Days 20 (Base 50)    
Moisture  
Dew Point 61 °F    
Average Humidity 76    
Maximum Humidity 91    
Minimum Humidity 54    
Precipitation  
Precipitation 0.00 in - - ()
Sea Level Pressure  
Sea Level Pressure 29.98 in    
Wind  
Wind Speed 11 mph (SSE)    
Max Wind Speed 17 mph    
Max Gust Speed 24 mph    
Visibility 10 miles    
Events      
Averages and records for this station are not official NWS values.
T = Trace of Precipitation, MM = Missing Value Source: NWS Daily Summary

Daily Weather History Graph

Daily Weather History Graph

Search for Another Location

Airport:

Trip Planner

Search our weather history database for the weather conditions in past years. The results will help you decide how hot, cold, wet, or windy it might be!

Date:

Astronomy

May. 08, 2013 Rise Set
Actual Time 6:47 AM CDT 8:18 PM CDT
Civil Twilight 6:21 AM CDT 8:44 PM CDT
Nautical Twilight 5:51 AM CDT 9:15 PM CDT
Astronomical Twilight 5:18 AM CDT 9:47 PM CDT
Moon 5:51 AM CDT (5/8) 7:21 PM CDT (5/8)
Length of Visible Light 14h 22m
Length of Day
13h 30m
Waning Crescent, 2% of the Moon is Illuminated
May 8
Waning Crescent
May 9
New
May 17
First Quarter
May 24
Full
May 31
Last Quarter

Hourly Weather History & Observations

Time (CDT) Temp. Dew Point Humidity Pressure Visibility Wind Dir Wind Speed Gust Speed Precip Events Conditions
12:15 AM 68.9 °F 55.9 °F 63% 30.00 in 10.0 mi SSE 10.4 mph - N/A   Clear
12:35 AM 68.9 °F 56.5 °F 65% 30.00 in 10.0 mi SSE 11.5 mph - N/A   Clear
12:55 AM 67.3 °F 56.1 °F 67% 30.00 in 10.0 mi SSE 10.4 mph - N/A   Clear
1:15 AM 66.2 °F 55.9 °F 69% 30.00 in 10.0 mi SSE 9.2 mph - N/A   Clear
1:35 AM 64.9 °F 55.6 °F 72% 29.99 in 10.0 mi SSE 8.1 mph - N/A   Clear
1:55 AM 64.6 °F 55.9 °F 74% 29.99 in 10.0 mi SSE 9.2 mph - N/A   Clear
2:15 AM 64.4 °F 56.7 °F 76% 29.98 in 10.0 mi SSE 11.5 mph - N/A   Clear
2:35 AM 63.7 °F 56.8 °F 78% 29.98 in 10.0 mi SSE 9.2 mph - N/A   Clear
2:55 AM 63.5 °F 57.4 °F 80% 29.97 in 10.0 mi SSE 9.2 mph - N/A   Clear
3:15 AM 62.6 °F 56.7 °F 81% 29.97 in 10.0 mi SSE 9.2 mph - N/A   Clear
3:35 AM 62.6 °F 56.7 °F 81% 29.97 in 10.0 mi SE 8.1 mph - N/A   Clear
3:55 AM 62.8 °F 57.2 °F 82% 29.98 in 10.0 mi SSE 10.4 mph - N/A   Mostly Cloudy
4:15 AM 63.5 °F 58.3 °F 83% 29.98 in 10.0 mi SSE 10.4 mph - N/A   Overcast
4:35 AM 63.5 °F 58.5 °F 84% 29.98 in 10.0 mi SSE 9.2 mph - N/A   Overcast
4:55 AM 63.0 °F 58.5 °F 85% 29.97 in 10.0 mi SSE 10.4 mph - N/A   Overcast
5:15 AM 62.6 °F 58.3 °F 86% 29.98 in 10.0 mi SSE 10.4 mph - N/A   Overcast
5:55 AM 62.6 °F 58.6 °F 87% 29.98 in 10.0 mi SSE 10.4 mph - N/A   Overcast
6:15 AM 62.6 °F 59.0 °F 88% 29.98 in 10.0 mi SSE 8.1 mph - N/A   Overcast
6:35 AM 62.6 °F 59.2 °F 89% 29.98 in 10.0 mi SSE 11.5 mph - N/A   Overcast
6:55 AM 62.6 °F 59.5 °F 90% 29.99 in 10.0 mi SSE 12.7 mph - N/A   Overcast
7:15 AM 62.6 °F 59.9 °F 91% 29.99 in 10.0 mi SSE 10.4 mph - N/A   Overcast
7:35 AM 62.6 °F 59.9 °F 91% 30.00 in 7.0 mi SSE 10.4 mph - N/A   Overcast
7:55 AM 62.6 °F 59.9 °F 91% 30.01 in 7.0 mi SSE 10.4 mph - N/A   Overcast
8:15 AM 63.0 °F 60.3 °F 91% 30.01 in 7.0 mi SSE 10.4 mph - N/A   Overcast
8:35 AM 63.0 °F 60.4 °F 91% 30.01 in 7.0 mi SSE 12.7 mph - N/A   Overcast
8:55 AM 63.7 °F 61.0 °F 91% 30.01 in 7.0 mi SSE 12.7 mph - N/A   Overcast
9:15 AM 63.7 °F 60.8 °F 90% 30.02 in 10.0 mi SSE 11.5 mph - N/A   Overcast
9:35 AM 64.0 °F 60.8 °F 89% 30.02 in 10.0 mi SSE 11.5 mph - N/A   Overcast
9:55 AM 64.8 °F 61.2 °F 88% 30.02 in 10.0 mi SSE 15.0 mph 21.9 mph N/A   Overcast
10:15 AM 65.3 °F 61.0 °F 86% 30.02 in 10.0 mi SSE 16.1 mph - N/A   Overcast
10:35 AM 65.3 °F 61.3 °F 87% 30.02 in 10.0 mi South 17.3 mph 24.2 mph N/A   Overcast
10:55 AM 66.2 °F 62.1 °F 86% 30.02 in 10.0 mi SSE 13.8 mph - N/A   Overcast
11:15 AM 67.6 °F 62.8 °F 84% 30.02 in 10.0 mi SSE 13.8 mph 17.3 mph N/A   Overcast
11:35 AM 68.9 °F 63.9 °F 84% 30.02 in 10.0 mi SSE 15.0 mph - N/A   Overcast
11:55 AM 68.9 °F 63.5 °F 83% 30.02 in 10.0 mi SSE 12.7 mph - N/A   Overcast
12:15 PM 70.3 °F 64.2 °F 81% 30.02 in 10.0 mi SSE 15.0 mph - N/A   Overcast
12:35 PM 71.6 °F 64.8 °F 79% 30.02 in 10.0 mi SSE 13.8 mph - N/A   Overcast
12:55 PM 71.6 °F 63.7 °F 76% 30.01 in 10.0 mi SSE 13.8 mph 19.6 mph N/A   Overcast
1:15 PM 71.6 °F 63.9 °F 76% 30.00 in 10.0 mi SSE 12.7 mph 20.7 mph N/A   Overcast
1:35 PM 71.6 °F 63.7 °F 76% 30.00 in 10.0 mi SSE 11.5 mph - N/A   Overcast
1:55 PM 71.6 °F 63.0 °F 74% 30.00 in 10.0 mi SSE 13.8 mph 18.4 mph N/A   Overcast
2:15 PM 73.2 °F 63.9 °F 72% 30.00 in 10.0 mi SSE 12.7 mph 18.4 mph N/A   Overcast
2:35 PM 73.9 °F 64.6 °F 72% 29.99 in 10.0 mi South 16.1 mph - N/A   Overcast
2:55 PM 73.8 °F 64.4 °F 72% 29.99 in 10.0 mi South 15.0 mph - N/A   Overcast
3:15 PM 73.2 °F 64.0 °F 73% 29.99 in 10.0 mi South 11.5 mph 18.4 mph N/A   Overcast
3:35 PM 73.9 °F 64.4 °F 72% 29.98 in 10.0 mi SSE 12.7 mph - N/A   Overcast
3:55 PM 74.1 °F 63.7 °F 70% 29.97 in 10.0 mi South 12.7 mph - N/A   Overcast
4:15 PM 76.5 °F 64.6 °F 67% 29.96 in 10.0 mi SSE 13.8 mph - N/A   Overcast
4:35 PM 76.5 °F 63.7 °F 64% 29.95 in 10.0 mi SSE 9.2 mph - N/A   Overcast
4:55 PM 76.5 °F 63.9 °F 65% 29.95 in 10.0 mi South 12.7 mph - N/A   Overcast
5:15 PM 77.4 °F 63.7 °F 63% 29.95 in 10.0 mi SSE 11.5 mph - N/A   Mostly Cloudy
5:35 PM 78.4 °F 64.0 °F 61% 29.94 in 10.0 mi SSE 6.9 mph - N/A   Overcast
5:55 PM 79.0 °F 63.1 °F 58% 29.93 in 10.0 mi SSE 9.2 mph - N/A   Mostly Cloudy
6:15 PM 79.0 °F 63.0 °F 58% 29.91 in 10.0 mi SSE 9.2 mph - N/A   Scattered Clouds
6:35 PM 79.9 °F 62.1 °F 54% 29.91 in 10.0 mi SSE 12.7 mph - N/A   Scattered Clouds
6:55 PM 79.0 °F 61.9 °F 56% 29.91 in 10.0 mi SSE 12.7 mph - N/A   Scattered Clouds
7:15 PM 79.0 °F 61.7 °F 55% 29.91 in 10.0 mi SE 12.7 mph - N/A   Scattered Clouds
7:35 PM 79.0 °F 61.5 °F 55% 29.90 in 10.0 mi SE 13.8 mph - N/A   Clear
7:55 PM 78.3 °F 61.3 °F 56% 29.91 in 10.0 mi ESE 9.2 mph - N/A   Scattered Clouds
8:15 PM 76.5 °F 61.7 °F 60% 29.91 in 10.0 mi ESE 8.1 mph - N/A   Scattered Clouds
8:35 PM 73.9 °F 61.0 °F 64% 29.92 in 10.0 mi ESE 5.8 mph - N/A   Clear
8:55 PM 73.9 °F 61.9 °F 66% 29.92 in 10.0 mi ESE 6.9 mph - N/A   Clear
9:15 PM 72.7 °F 61.7 °F 68% 29.92 in 10.0 mi ESE 8.1 mph - N/A   Clear
9:35 PM 71.6 °F 60.8 °F 69% 29.93 in 10.0 mi ESE 8.1 mph - N/A   Clear
9:55 PM 71.6 °F 61.9 °F 71% 29.94 in 10.0 mi SE 8.1 mph - N/A   Clear
10:15 PM 71.6 °F 62.6 °F 73% 29.95 in 10.0 mi SE 12.7 mph - N/A   Clear
10:35 PM 71.6 °F 62.4 °F 73% 29.96 in 10.0 mi SSE 15.0 mph - N/A   Clear
11:15 PM 70.3 °F 63.7 °F 79% 29.97 in 10.0 mi SSE 16.1 mph - N/A   Scattered Clouds
11:55 PM 68.9 °F 63.0 °F 81% 29.97 in 10.0 mi SE 13.8 mph - N/A   Overcast